Robeson, Pennsylvania
Current Conditions -  °F | °C
As of 8:54 AM on Thursday 23 Oct 2014 (Local Time) from KRDG Reporting Station
Light Rain Light Rain  
Wind Chill: 52°   Ceiling: 2700
Heat Index: 52°   Visibility: 10mi
Dew Point: 43°   Wind: 14mph
Humidity: 71%   Direction: 330°NNW
Pressure: 29.83"   Gusts: NA
Location:  40.2313°N, 75.8555°W
Report Text: KRDG 231254Z 33012KT 10SM -RA OVC027 11/06 A2983 RMK AO2 RAB29 SLP105 P0000 T01110061
Loading
Personal Weather Stations






























Interactive Weather Map
Tropical Storm Tracking
New forecast layout! Learn more

10-Day Weather Forecast

Advertisements
Track Severe Weather on mobile